WMT6039 EGGW-LRSB
Flight info
| Callsign | WMT6039 |
|---|---|
| Flight time | N/A |
| Altitude | 35000 |
| Route | MATCH2C MATCH Q295 BRAIN M197 REDFA L620 TACHA DCT ZUCKA DCT OMELO DCT EVIKU DCT ROMIS DCT PITOK DCT BUDOP DCT IBINU IBINU2S |
| Aircraft | A21N/M-SDE1E2E3FGIJ1J4RWXY/LB1 |
Departure
| Time | 2026-05-04 18:32 |
|---|---|
| Airport | London Luton Airport (EGGW) |
Arrival
| Time | N/A |
|---|---|
| Airport | Sibiu International Airport (LRSB) |
| Time | Latitude | Longitude | Altitude | Speed | Heading |
|---|---|---|---|---|---|
| 2026-05-04 18:05 | 51.87974 | -0.37258 | 539 ft | 0 kts | 161° |
| 2026-05-04 18:18 | 51.87977 | -0.37260 | 539 ft | 3 kts | 161° |
| 2026-05-04 18:18 | 51.87999 | -0.37272 | 539 ft | 2 kts | 161° |
| 2026-05-04 18:18 | 51.88021 | -0.37276 | 539 ft | 4 kts | 206° |
| 2026-05-04 18:19 | 51.88044 | -0.37209 | 539 ft | 4 kts | 251° |
| 2026-05-04 18:19 | 51.88053 | -0.37173 | 539 ft | 4 kts | 226° |
| 2026-05-04 18:19 | 51.88074 | -0.37159 | 539 ft | 4 kts | 173° |
| 2026-05-04 18:20 | 51.88098 | -0.37169 | 539 ft | 4 kts | 162° |
| 2026-05-04 18:20 | 51.88108 | -0.37174 | 539 ft | 0 kts | 162° |
| 2026-05-04 18:24 | 51.88087 | -0.37163 | 539 ft | 5 kts | 162° |
| 2026-05-04 18:24 | 51.88036 | -0.37136 | 539 ft | 10 kts | 162° |
| 2026-05-04 18:24 | 51.87955 | -0.37093 | 539 ft | 14 kts | 162° |
| 2026-05-04 18:25 | 51.87855 | -0.37039 | 539 ft | 16 kts | 162° |
| 2026-05-04 18:25 | 51.87750 | -0.36983 | 539 ft | 17 kts | 162° |
| 2026-05-04 18:25 | 51.87671 | -0.36942 | 539 ft | 0 kts | 163° |
| 2026-05-04 18:25 | 51.87657 | -0.36940 | 539 ft | 7 kts | 190° |
| 2026-05-04 18:26 | 51.87617 | -0.37053 | 540 ft | 16 kts | 255° |
| 2026-05-04 18:26 | 51.87587 | -0.37223 | 540 ft | 14 kts | 256° |
| 2026-05-04 18:26 | 51.87581 | -0.37385 | 541 ft | 15 kts | 277° |
| 2026-05-04 18:26 | 51.87514 | -0.37518 | 542 ft | 17 kts | 240° |
| 2026-05-04 18:27 | 51.87477 | -0.37701 | 542 ft | 18 kts | 255° |
| 2026-05-04 18:27 | 51.87443 | -0.37900 | 542 ft | 19 kts | 253° |
| 2026-05-04 18:27 | 51.87378 | -0.38064 | 540 ft | 7 kts | 202° |
| 2026-05-04 18:27 | 51.87359 | -0.38077 | 540 ft | 0 kts | 202° |
| 2026-05-04 18:29 | 51.87350 | -0.38083 | 539 ft | 4 kts | 202° |
| 2026-05-04 18:29 | 51.87287 | -0.38106 | 538 ft | 13 kts | 178° |
| 2026-05-04 18:29 | 51.87221 | -0.38213 | 534 ft | 16 kts | 240° |
| 2026-05-04 18:30 | 51.87225 | -0.38221 | 533 ft | 0 kts | 73° |
| 2026-05-04 18:31 | 51.87225 | -0.38220 | 533 ft | 0 kts | 73° |
| 2026-05-04 18:32 | 51.87234 | -0.38172 | 535 ft | 21 kts | 73° |
| 2026-05-04 18:32 | 51.87348 | -0.37544 | 542 ft | 94 kts | 75° |
| 2026-05-04 18:32 | 51.87587 | -0.36123 | 535 ft | 170 kts | 74° |
| 2026-05-04 18:32 | 51.87958 | -0.33979 | 1262 ft | 210 kts | 72° |
| 2026-05-04 18:33 | 51.88391 | -0.31704 | 2795 ft | 207 kts | 71° |
| 2026-05-04 18:33 | 51.88841 | -0.29524 | 4147 ft | 201 kts | 69° |
| 2026-05-04 18:33 | 51.89283 | -0.27315 | 4936 ft | 225 kts | 75° |
| 2026-05-04 18:33 | 51.89691 | -0.24560 | 5027 ft | 270 kts | 76° |
| 2026-05-04 18:34 | 51.89903 | -0.21509 | 5030 ft | 276 kts | 90° |
| 2026-05-04 18:34 | 51.89542 | -0.18484 | 5572 ft | 276 kts | 109° |
| 2026-05-04 18:34 | 51.88804 | -0.15591 | 6596 ft | 280 kts | 113° |
| 2026-05-04 18:34 | 51.88005 | -0.12681 | 7626 ft | 285 kts | 113° |
| 2026-05-04 18:35 | 51.87194 | -0.09714 | 8665 ft | 291 kts | 113° |
| 2026-05-04 18:35 | 51.86373 | -0.06661 | 9749 ft | 302 kts | 113° |
| 2026-05-04 18:35 | 51.85515 | -0.03452 | 10617 ft | 323 kts | 113° |
| 2026-05-04 18:35 | 51.84587 | 0.00030 | 11346 ft | 347 kts | 113° |
| 2026-05-04 18:36 | 51.83613 | 0.03691 | 12405 ft | 363 kts | 114° |
| 2026-05-04 18:36 | 51.82592 | 0.07518 | 13477 ft | 379 kts | 114° |
| 2026-05-04 18:36 | 51.81519 | 0.11518 | 14531 ft | 397 kts | 114° |
| 2026-05-04 18:36 | 51.80396 | 0.15695 | 15531 ft | 407 kts | 114° |
| 2026-05-04 18:37 | 51.79302 | 0.19786 | 16486 ft | 386 kts | 114° |
| 2026-05-04 18:37 | 51.78437 | 0.23792 | 17386 ft | 377 kts | 104° |
| 2026-05-04 18:37 | 51.78143 | 0.28012 | 18299 ft | 382 kts | 90° |
| 2026-05-04 18:37 | 51.78396 | 0.32312 | 19234 ft | 388 kts | 83° |
| 2026-05-04 18:38 | 51.78785 | 0.36672 | 20165 ft | 395 kts | 83° |
| 2026-05-04 18:38 | 51.79180 | 0.41083 | 21086 ft | 410 kts | 83° |
| 2026-05-04 18:38 | 51.79569 | 0.45725 | 21998 ft | 426 kts | 83° |
| 2026-05-04 18:38 | 51.79968 | 0.50628 | 22886 ft | 443 kts | 83° |
| 2026-05-04 18:39 | 51.80364 | 0.55606 | 23730 ft | 462 kts | 84° |
| 2026-05-04 18:39 | 51.80778 | 0.60875 | 24560 ft | 483 kts | 84° |
| 2026-05-04 18:39 | 51.81298 | 0.66356 | 25314 ft | 507 kts | 79° |
| 2026-05-04 18:39 | 51.82137 | 0.71975 | 26068 ft | 513 kts | 76° |
| 2026-05-04 18:40 | 51.83071 | 0.77476 | 26740 ft | 503 kts | 75° |
| 2026-05-04 18:40 | 51.84107 | 0.82855 | 27362 ft | 505 kts | 73° |
| 2026-05-04 18:40 | 51.85272 | 0.88243 | 27988 ft | 506 kts | 71° |
| 2026-05-04 18:40 | 51.86509 | 0.93522 | 28441 ft | 502 kts | 72° |
| 2026-05-04 18:41 | 51.87641 | 0.98894 | 28469 ft | 506 kts | 73° |
| 2026-05-04 18:41 | 51.89920 | 1.09799 | 28490 ft | 517 kts | 73° |
| 2026-05-04 18:42 | 51.92307 | 1.20923 | 28471 ft | 530 kts | 72° |
| 2026-05-04 18:42 | 51.93483 | 1.26379 | 30128 ft | 490 kts | 73° |
| 2026-05-04 18:42 | 51.94440 | 1.31496 | 31589 ft | 466 kts | 78° |
| 2026-05-04 18:42 | 51.95170 | 1.36567 | 32184 ft | 464 kts | 82° |
| 2026-05-04 18:43 | 51.95785 | 1.41789 | 32759 ft | 480 kts | 82° |
| 2026-05-04 18:43 | 51.96420 | 1.47116 | 33352 ft | 477 kts | 82° |
| 2026-05-04 18:43 | 51.97058 | 1.52351 | 33861 ft | 470 kts | 81° |
| 2026-05-04 18:43 | 51.97702 | 1.57535 | 34138 ft | 470 kts | 81° |
| 2026-05-04 18:44 | 51.98370 | 1.62863 | 34176 ft | 494 kts | 81° |
| 2026-05-04 18:44 | 51.99775 | 1.73866 | 34394 ft | 501 kts | 80° |
| 2026-05-04 18:44 | 52.00514 | 1.79481 | 33848 ft | 519 kts | 80° |
| 2026-05-04 18:45 | 52.01351 | 1.85222 | 33886 ft | 522 kts | 77° |
| 2026-05-04 18:45 | 52.02326 | 1.90762 | 35122 ft | 499 kts | 74° |
| 2026-05-04 18:45 | 52.03450 | 1.95954 | 36337 ft | 477 kts | 72° |
| 2026-05-04 18:45 | 52.04537 | 2.00960 | 37097 ft | 463 kts | 72° |
| 2026-05-04 18:46 | 52.05589 | 2.05833 | 37786 ft | 455 kts | 72° |
| 2026-05-04 18:46 | 52.06634 | 2.10697 | 38249 ft | 461 kts | 72° |
| 2026-05-04 18:46 | 52.07699 | 2.15696 | 38127 ft | 476 kts | 72° |
| 2026-05-04 18:47 | 52.09867 | 2.25958 | 38154 ft | 484 kts | 72° |
| 2026-05-04 18:47 | 52.12052 | 2.36425 | 37758 ft | 500 kts | 72° |
| 2026-05-04 18:47 | 52.13178 | 2.41900 | 37390 ft | 515 kts | 73° |
| 2026-05-04 18:48 | 52.14227 | 2.47459 | 37443 ft | 517 kts | 75° |
| 2026-05-04 18:48 | 52.15196 | 2.53122 | 37781 ft | 506 kts | 77° |
| 2026-05-04 18:48 | 52.16012 | 2.58385 | 40011 ft | 462 kts | 77° |
| 2026-05-04 18:48 | 52.16758 | 2.63532 | 39467 ft | 480 kts | 78° |
| 2026-05-04 18:49 | 52.17452 | 2.69003 | 38690 ft | 505 kts | 81° |
| 2026-05-04 18:49 | 52.18019 | 2.74669 | 38791 ft | 506 kts | 84° |
| 2026-05-04 18:49 | 52.18330 | 2.80380 | 38876 ft | 507 kts | 89° |
| 2026-05-04 18:49 | 52.18373 | 2.86125 | 39027 ft | 507 kts | 94° |
| 2026-05-04 18:50 | 52.18286 | 2.88778 | 39165 ft | 505 kts | 97° |